Time;durP1;ratioP1;P1;durP2;ratioP2;P2;SDS_P1;SDS_P2;PMS_P1;PMS_P2;Temp;Humidity;BMP_temperature;BMP_pressure;BME280_temperature;BME280_humidity;BME280_pressure;Samples;Min_cycle;Max_cycle;Signal;HPM_P1;HPM_P2
2023/01/22 00:02:02;;;;;;;9.98;6.65;;;0.80;99.90;;;;;;4973592;28;20049;-71
2023/01/22 00:04:29;;;;;;;10.95;6.20;;;0.60;99.90;;;;;;4972543;28;20051;-72
2023/01/22 00:06:56;;;;;;;8.88;6.47;;;0.60;99.90;;;;;;4971573;28;20042;-72
2023/01/22 00:09:24;;;;;;;16.25;6.75;;;0.60;99.90;;;;;;4972142;28;20503;-72
2023/01/22 00:11:52;;;;;;;14.35;7.07;;;0.50;99.90;;;;;;4972533;28;20054;-73
2023/01/22 00:14:19;;;;;;;11.57;7.07;;;0.60;99.90;;;;;;4973699;28;20125;-73
2023/01/22 00:16:47;;;;;;;12.82;7.60;;;0.60;99.90;;;;;;4972063;28;20047;-72
2023/01/22 00:19:14;;;;;;;10.65;6.53;;;0.60;99.90;;;;;;4972285;28;20047;-73
2023/01/22 00:21:40;;;;;;;11.98;7.43;;;0.50;99.90;;;;;;4971814;28;20058;-72
2023/01/22 00:24:08;;;;;;;11.18;7.35;;;0.50;99.90;;;;;;4974032;28;20518;-72
2023/01/22 00:26:36;;;;;;;15.07;8.32;;;0.40;99.90;;;;;;4956067;28;20054;-72
2023/01/22 00:29:05;;;;;;;12.55;7.80;;;0.50;99.90;;;;;;4956037;28;20065;-73
2023/01/22 00:31:31;;;;;;;12.20;7.47;;;0.50;99.90;;;;;;4956951;28;20055;-73
2023/01/22 00:33:58;;;;;;;14.57;8.13;;;0.30;99.90;;;;;;4974136;28;20070;-73
2023/01/22 00:36:25;;;;;;;16.30;8.93;;;0.30;99.90;;;;;;4955645;28;20054;-73
2023/01/22 00:38:52;;;;;;;15.27;8.00;;;0.20;99.90;;;;;;4956612;28;20415;-73
2023/01/22 00:41:20;;;;;;;14.05;8.45;;;0.20;99.90;;;;;;4956458;28;20050;-73
2023/01/22 00:43:47;;;;;;;15.73;7.90;;;0.10;99.90;;;;;;4973222;28;20062;-72
2023/01/22 00:46:17;;;;;;;17.73;9.13;;;0.10;99.90;;;;;;4969479;28;20054;-71
2023/01/22 00:48:45;;;;;;;15.05;8.40;;;0.10;99.90;;;;;;4971571;28;20119;-70
2023/01/22 00:51:13;;;;;;;18.50;9.43;;;0.00;99.90;;;;;;4971212;28;20051;-71
2023/01/22 00:53:42;;;;;;;18.60;9.98;;;0.00;99.90;;;;;;4957228;28;20066;-71
2023/01/22 00:56:10;;;;;;;16.25;9.50;;;0.00;99.90;;;;;;4959285;28;20125;-70
2023/01/22 00:58:37;;;;;;;15.35;8.68;;;-0.80;99.90;;;;;;4959538;28;20050;-69
2023/01/22 01:01:05;;;;;;;15.95;8.63;;;-0.30;99.90;;;;;;4959816;28;20411;-70
2023/01/22 01:03:35;;;;;;;16.15;10.20;;;0.10;99.90;;;;;;4958783;28;20047;-70
2023/01/22 01:06:04;;;;;;;13.87;8.93;;;0.20;99.90;;;;;;4976798;28;20078;-70
2023/01/22 01:08:33;;;;;;;15.25;8.93;;;0.20;99.90;;;;;;4978432;28;20065;-70
2023/01/22 01:11:02;;;;;;;17.85;9.43;;;0.30;99.90;;;;;;4974203;28;20050;-70
2023/01/22 01:13:31;;;;;;;18.73;10.13;;;0.30;99.90;;;;;;4976640;28;20059;-71
2023/01/22 01:16:00;;;;;;;16.00;9.32;;;0.30;99.90;;;;;;4976672;28;20069;-71
2023/01/22 01:18:27;;;;;;;15.57;9.35;;;0.30;99.90;;;;;;4958761;28;20082;-71
2023/01/22 01:20:57;;;;;;;16.13;10.25;;;0.30;99.90;;;;;;4959466;28;20498;-70
2023/01/22 01:23:24;;;;;;;15.73;8.57;;;0.30;99.90;;;;;;4959475;28;20050;-70
2023/01/22 01:25:51;;;;;;;16.55;9.73;;;0.30;99.90;;;;;;4975777;28;20055;-71
2023/01/22 01:28:18;;;;;;;20.02;11.85;;;0.30;99.90;;;;;;4958810;28;20047;-71
2023/01/22 01:30:46;;;;;;;22.50;13.32;;;0.40;99.90;;;;;;4976451;28;20055;-71
2023/01/22 01:33:13;;;;;;;20.27;11.50;;;0.40;99.90;;;;;;4958438;28;20495;-71
2023/01/22 01:35:40;;;;;;;16.02;9.75;;;0.30;99.90;;;;;;4976460;28;20383;-71
2023/01/22 01:38:09;;;;;;;15.25;9.77;;;0.40;99.90;;;;;;4959022;28;20484;-71
2023/01/22 01:40:40;;;;;;;17.42;9.75;;;0.40;99.90;;;;;;4959030;28;20062;-71
2023/01/22 01:43:14;;;;;;;22.25;10.85;;;0.40;99.90;;;;;;4976109;28;20050;-72
2023/01/22 01:45:41;;;;;;;19.75;10.27;;;0.40;99.90;;;;;;4958533;28;20042;-71
2023/01/22 01:48:17;;;;;;;17.67;11.23;;;0.40;99.90;;;;;;4958563;28;20513;-72
2023/01/22 01:50:50;;;;;;;19.40;11.90;;;0.40;99.90;;;;;;4993661;28;20042;-72
2023/01/22 01:53:19;;;;;;;23.65;13.70;;;0.30;99.90;;;;;;4975588;28;20058;-72
2023/01/22 01:55:45;;;;;;;23.10;14.35;;;0.30;99.90;;;;;;4988860;28;20420;-73
2023/01/22 01:58:20;;;;;;;26.50;15.38;;;0.60;99.90;;;;;;4975260;28;20116;-72
2023/01/22 02:00:48;;;;;;;25.23;14.43;;;0.30;99.90;;;;;;4974156;28;20138;-72
2023/01/22 02:03:15;;;;;;;28.25;15.85;;;0.30;99.90;;;;;;4975865;28;20086;-72
2023/01/22 02:05:42;;;;;;;29.35;17.00;;;0.30;99.90;;;;;;4980826;28;20046;-72
2023/01/22 02:08:09;;;;;;;29.00;15.32;;;0.30;99.90;;;;;;4973580;28;20545;-72
2023/01/22 02:10:37;;;;;;;23.25;12.88;;;0.30;99.90;;;;;;4988345;28;20109;-72
2023/01/22 02:13:09;;;;;;;18.48;11.02;;;0.30;99.90;;;;;;4975702;28;20058;-72
2023/01/22 02:15:38;;;;;;;24.48;12.23;;;0.30;99.90;;;;;;4976372;28;20057;-72
2023/01/22 02:18:05;;;;;;;20.25;11.13;;;0.30;99.90;;;;;;4993972;28;20054;-72
2023/01/22 02:20:35;;;;;;;17.00;9.77;;;0.40;99.90;;;;;;4976556;28;20042;-70
2023/01/22 02:23:02;;;;;;;16.50;9.75;;;0.30;99.90;;;;;;4993771;28;20058;-72
2023/01/22 02:25:29;;;;;;;17.98;9.93;;;0.40;99.90;;;;;;4993840;28;20061;-72
2023/01/22 02:27:56;;;;;;;14.80;8.23;;;0.40;99.90;;;;;;4993150;28;20058;-72
2023/01/22 02:30:23;;;;;;;15.95;9.65;;;0.50;99.90;;;;;;4976786;28;20049;-72
2023/01/22 02:32:51;;;;;;;15.25;9.93;;;0.50;99.90;;;;;;4973562;28;20051;-70
2023/01/22 02:35:18;;;;;;;14.10;8.32;;;0.50;99.90;;;;;;4974794;28;20076;-70
2023/01/22 02:37:46;;;;;;;14.40;8.80;;;0.50;99.90;;;;;;4973528;28;20050;-70
2023/01/22 02:40:14;;;;;;;14.40;9.18;;;0.50;99.90;;;;;;4973587;28;20047;-69
2023/01/22 02:42:41;;;;;;;17.73;8.32;;;0.50;99.90;;;;;;4974557;28;20062;-70
2023/01/22 02:45:09;;;;;;;12.57;8.00;;;0.60;99.90;;;;;;4973354;28;20074;-70
2023/01/22 02:47:36;;;;;;;15.48;7.72;;;0.60;99.90;;;;;;4972781;28;20047;-69
2023/01/22 02:50:03;;;;;;;11.82;7.20;;;0.60;99.90;;;;;;4972766;28;20054;-70
2023/01/22 02:52:30;;;;;;;10.02;6.63;;;0.60;99.90;;;;;;4973202;28;20423;-70
2023/01/22 02:54:59;;;;;;;13.80;7.30;;;0.60;99.90;;;;;;4976096;28;20042;-70
2023/01/22 02:57:26;;;;;;;15.07;7.22;;;0.60;99.90;;;;;;4988034;28;20498;-70
2023/01/22 02:59:53;;;;;;;12.98;6.22;;;0.60;99.90;;;;;;4975645;28;20534;-70
2023/01/22 03:02:20;;;;;;;14.70;6.75;;;0.60;99.90;;;;;;4975937;28;20050;-71
2023/01/22 03:04:48;;;;;;;11.93;7.07;;;0.70;99.90;;;;;;4975349;28;20130;-70
2023/01/22 03:07:17;;;;;;;10.82;7.03;;;0.70;99.90;;;;;;4975609;28;20491;-71
2023/01/22 03:09:44;;;;;;;9.38;6.18;;;0.50;99.90;;;;;;4973217;28;20046;-70
2023/01/22 03:12:12;;;;;;;9.88;5.30;;;0.50;99.90;;;;;;4975851;28;20471;-70
2023/01/22 03:22:54;;;;;;;8.82;5.13;;;0.50;99.90;;;;;;4975653;28;20125;-70
2023/01/22 03:25:21;;;;;;;10.60;4.93;;;0.60;99.90;;;;;;4971742;28;20113;-70
2023/01/22 03:30:42;;;;;;;9.68;4.03;;;0.60;99.90;;;;;;4925900;28;20050;-70
2023/01/22 03:33:09;;;;;;;8.25;4.32;;;0.50;99.90;;;;;;4955449;28;20518;-71
2023/01/22 03:35:36;;;;;;;8.13;4.20;;;0.50;99.90;;;;;;4955187;28;20059;-71
2023/01/22 03:38:02;;;;;;;6.95;3.65;;;0.50;99.90;;;;;;4972066;28;20043;-71
2023/01/22 03:40:29;;;;;;;5.55;3.47;;;0.60;99.90;;;;;;4973131;28;20434;-70
2023/01/22 03:42:58;;;;;;;4.88;3.60;;;0.60;99.90;;;;;;4955629;28;20088;-70
2023/01/22 03:45:25;;;;;;;8.98;4.07;;;0.60;99.90;;;;;;4954266;28;20061;-69
2023/01/22 03:47:54;;;;;;;7.38;3.47;;;0.60;99.90;;;;;;4972517;28;20419;-69
2023/01/22 03:50:21;;;;;;;7.13;4.30;;;0.70;99.90;;;;;;4972796;28;20054;-69
2023/01/22 03:52:48;;;;;;;5.68;3.58;;;0.90;99.90;;;;;;4972049;28;20388;-70
2023/01/22 03:55:15;;;;;;;5.55;3.22;;;0.70;99.90;;;;;;4955970;28;20051;-70
2023/01/22 03:57:42;;;;;;;6.25;3.70;;;0.80;99.90;;;;;;4972699;28;20130;-70
2023/01/22 04:00:12;;;;;;;4.85;3.67;;;0.80;99.90;;;;;;4972111;28;20451;-70
2023/01/22 04:02:39;;;;;;;6.38;3.50;;;0.80;99.90;;;;;;4952964;28;20062;-69
2023/01/22 04:05:07;;;;;;;5.32;3.40;;;0.80;99.90;;;;;;4954853;28;20054;-69
2023/01/22 04:07:34;;;;;;;5.63;3.60;;;0.80;99.90;;;;;;4971126;28;20412;-70
2023/01/22 04:10:01;;;;;;;9.25;4.35;;;0.90;99.90;;;;;;4972054;28;20050;-69
2023/01/22 04:12:28;;;;;;;7.00;3.65;;;0.90;99.90;;;;;;4955895;28;20067;-71
2023/01/22 04:14:55;;;;;;;8.35;4.78;;;1.00;99.90;;;;;;4955151;28;20050;-70
2023/01/22 04:17:23;;;;;;;7.00;3.97;;;1.00;99.90;;;;;;4972424;28;20518;-70
2023/01/22 04:19:50;;;;;;;6.50;3.53;;;0.90;99.90;;;;;;4955555;28;20051;-70
2023/01/22 04:22:17;;;;;;;10.55;3.85;;;1.00;99.90;;;;;;4954491;28;20410;-70
2023/01/22 04:24:44;;;;;;;6.32;3.30;;;1.00;99.90;;;;;;4955468;28;20054;-69
2023/01/22 04:27:11;;;;;;;8.68;3.33;;;1.20;99.90;;;;;;4972169;28;20042;-69
2023/01/22 04:29:37;;;;;;;4.82;3.22;;;1.00;99.90;;;;;;4976190;28;20495;-69
2023/01/22 04:32:05;;;;;;;7.63;3.15;;;1.00;99.90;;;;;;4956079;28;20058;-70
2023/01/22 04:34:33;;;;;;;7.82;4.03;;;1.00;99.90;;;;;;4958409;28;20054;-70
2023/01/22 04:37:00;;;;;;;7.70;4.00;;;1.10;99.90;;;;;;4959294;28;20055;-71
2023/01/22 04:39:27;;;;;;;6.25;3.80;;;1.00;99.90;;;;;;4975823;28;20051;-70
2023/01/22 04:41:54;;;;;;;6.93;3.80;;;1.10;99.90;;;;;;4974440;28;20545;-71
2023/01/22 04:44:20;;;;;;;5.03;3.38;;;1.10;99.90;;;;;;4959153;28;20046;-71
2023/01/22 04:46:47;;;;;;;6.95;4.25;;;1.10;99.90;;;;;;4959007;28;20399;-71
2023/01/22 04:49:14;;;;;;;5.72;3.67;;;1.10;99.90;;;;;;4973051;28;20046;-71
2023/01/22 04:51:42;;;;;;;8.70;3.50;;;1.20;99.90;;;;;;4958817;28;20054;-70
2023/01/22 04:54:09;;;;;;;5.15;3.53;;;1.10;99.90;;;;;;4959001;28;20082;-70
2023/01/22 04:56:36;;;;;;;7.10;4.15;;;1.20;99.90;;;;;;4974318;28;20054;-69
2023/01/22 04:59:03;;;;;;;7.80;3.95;;;1.20;99.90;;;;;;4958746;28;20491;-70
2023/01/22 05:01:30;;;;;;;5.55;3.60;;;1.20;99.90;;;;;;4956137;28;20055;-69
2023/01/22 05:04:01;;;;;;;8.27;4.68;;;1.20;99.90;;;;;;4957690;28;20051;-69
2023/01/22 05:06:27;;;;;;;5.32;4.10;;;1.20;99.90;;;;;;4975815;28;20049;-69
2023/01/22 05:08:56;;;;;;;6.18;4.07;;;1.20;99.90;;;;;;4958601;28;20058;-69
2023/01/22 05:11:23;;;;;;;6.63;4.03;;;1.20;99.90;;;;;;4957555;28;20054;-70
2023/01/22 05:13:49;;;;;;;6.50;4.00;;;1.20;99.90;;;;;;4957877;28;20058;-72
2023/01/22 05:16:16;;;;;;;7.80;4.15;;;1.20;99.90;;;;;;4974806;28;20066;-70
2023/01/22 05:18:43;;;;;;;6.43;4.53;;;1.20;99.90;;;;;;4975570;28;20057;-70
2023/01/22 05:21:10;;;;;;;6.07;4.53;;;1.20;99.90;;;;;;4958274;28;20046;-70
2023/01/22 05:23:37;;;;;;;4.95;3.47;;;1.20;99.90;;;;;;4957959;28;20062;-70
2023/01/22 05:26:05;;;;;;;6.43;3.75;;;1.20;99.90;;;;;;4957562;28;20054;-70
2023/01/22 05:28:32;;;;;;;6.78;4.22;;;1.20;99.90;;;;;;4957537;28;21377;-70
2023/01/22 05:30:59;;;;;;;7.88;3.92;;;1.20;99.90;;;;;;4957798;28;20054;-70
2023/01/22 05:33:29;;;;;;;7.55;4.10;;;1.20;99.90;;;;;;4975448;28;20061;-70
2023/01/22 05:35:57;;;;;;;8.45;4.03;;;1.20;99.90;;;;;;4958059;28;20055;-69
2023/01/22 05:38:24;;;;;;;8.05;3.97;;;1.20;99.90;;;;;;4957459;28;20046;-69
2023/01/22 05:40:51;;;;;;;8.98;4.53;;;1.20;99.90;;;;;;4957068;28;20542;-70
2023/01/22 05:43:20;;;;;;;7.65;3.95;;;1.20;99.90;;;;;;4975491;28;20047;-70
2023/01/22 05:45:47;;;;;;;6.03;4.00;;;1.20;99.90;;;;;;4954730;28;20047;-70
2023/01/22 05:48:14;;;;;;;6.97;4.63;;;1.20;99.90;;;;;;4957616;28;20039;-70
2023/01/22 05:50:41;;;;;;;7.72;4.10;;;1.20;99.90;;;;;;4974988;28;20484;-71
2023/01/22 05:53:08;;;;;;;6.20;4.20;;;1.20;99.90;;;;;;4974391;28;20499;-71
2023/01/22 05:55:35;;;;;;;7.28;3.67;;;1.20;99.90;;;;;;4957650;28;20114;-70
2023/01/22 05:58:02;;;;;;;9.00;4.45;;;1.20;99.90;;;;;;4974189;28;20046;-69
2023/01/22 06:00:31;;;;;;;9.93;4.63;;;1.30;99.90;;;;;;4974064;28;20038;-69
2023/01/22 06:02:58;;;;;;;10.07;3.72;;;1.20;99.90;;;;;;4971729;28;20517;-70
2023/01/22 06:05:26;;;;;;;6.32;3.78;;;1.20;99.90;;;;;;4957388;28;20051;-69
2023/01/22 06:07:53;;;;;;;6.18;3.75;;;1.30;99.90;;;;;;4974597;28;20061;-70
2023/01/22 06:10:20;;;;;;;6.22;4.07;;;1.10;99.90;;;;;;4974331;28;20042;-73
2023/01/22 06:12:47;;;;;;;7.43;4.45;;;1.10;99.90;;;;;;4974127;28;20054;-74
2023/01/22 06:15:14;;;;;;;6.95;4.35;;;1.10;99.90;;;;;;4972632;28;20046;-73
2023/01/22 06:17:42;;;;;;;7.32;3.78;;;1.10;99.90;;;;;;4974556;28;20051;-73
2023/01/22 06:20:10;;;;;;;8.02;4.43;;;1.10;99.90;;;;;;4972187;28;20051;-73
2023/01/22 06:22:37;;;;;;;9.13;4.82;;;1.10;99.90;;;;;;4962489;28;20423;-72
2023/01/22 06:25:05;;;;;;;16.50;4.30;;;1.10;99.90;;;;;;4957276;28;20408;-73
2023/01/22 06:27:32;;;;;;;10.32;4.00;;;1.10;99.90;;;;;;4956205;28;20488;-73
2023/01/22 06:29:58;;;;;;;5.97;4.00;;;1.00;99.90;;;;;;4974089;28;20102;-73
2023/01/22 06:32:25;;;;;;;4.38;3.20;;;1.00;99.90;;;;;;4957009;28;20407;-73
2023/01/22 06:34:54;;;;;;;9.60;4.35;;;1.00;99.90;;;;;;4956421;28;20459;-73
2023/01/22 06:37:21;;;;;;;6.70;4.15;;;1.00;99.90;;;;;;4957144;28;20046;-70
2023/01/22 06:39:48;;;;;;;8.80;3.80;;;1.00;99.90;;;;;;4973997;28;20069;-70
2023/01/22 06:42:15;;;;;;;6.10;3.75;;;1.00;99.90;;;;;;4956480;28;20169;-70
2023/01/22 06:44:42;;;;;;;9.10;4.10;;;1.00;99.90;;;;;;4956537;28;20050;-70
2023/01/22 06:47:09;;;;;;;6.25;4.25;;;1.00;99.90;;;;;;4956260;28;20047;-70
2023/01/22 06:49:36;;;;;;;10.40;4.20;;;1.20;99.90;;;;;;4955675;28;20043;-70
2023/01/22 06:52:05;;;;;;;6.30;4.53;;;1.00;99.90;;;;;;4954976;28;20415;-70
2023/01/22 06:54:32;;;;;;;6.63;4.30;;;1.00;99.90;;;;;;4973608;28;20058;-69
2023/01/22 06:56:59;;;;;;;7.40;4.15;;;1.00;99.90;;;;;;4972719;28;20038;-69
2023/01/22 06:59:26;;;;;;;10.00;4.88;;;0.90;99.90;;;;;;4955755;28;20070;-69
2023/01/22 07:01:53;;;;;;;9.60;4.88;;;0.90;99.90;;;;;;4955884;28;20065;-69
2023/01/22 07:04:20;;;;;;;13.00;5.00;;;0.90;99.90;;;;;;4956565;28;20452;-69
2023/01/22 07:06:47;;;;;;;10.02;4.63;;;0.90;99.90;;;;;;4971648;28;20061;-69
2023/01/22 07:09:15;;;;;;;6.53;4.78;;;0.90;99.90;;;;;;4950606;28;20058;-69
2023/01/22 07:11:42;;;;;;;10.02;4.75;;;0.90;99.90;;;;;;4955398;28;20055;-69
2023/01/22 07:14:09;;;;;;;10.25;5.63;;;0.90;99.90;;;;;;4964785;28;20532;-70
2023/01/22 07:16:36;;;;;;;6.22;5.35;;;0.90;99.90;;;;;;4971513;28;20059;-69
2023/01/22 07:19:03;;;;;;;9.77;5.60;;;0.90;99.90;;;;;;4971380;28;20438;-69
2023/01/22 07:21:30;;;;;;;8.30;5.30;;;0.90;99.90;;;;;;4958072;28;20046;-70
2023/01/22 07:23:57;;;;;;;6.03;4.57;;;0.90;99.90;;;;;;4971473;28;20051;-70
2023/01/22 07:26:25;;;;;;;8.60;5.43;;;0.80;99.90;;;;;;4951575;28;20058;-70
2023/01/22 07:28:52;;;;;;;8.48;5.43;;;0.90;99.90;;;;;;4950959;28;20050;-69
2023/01/22 07:31:19;;;;;;;9.55;5.88;;;0.80;99.90;;;;;;4952836;28;20051;-69
2023/01/22 07:33:46;;;;;;;9.82;5.60;;;0.80;99.90;;;;;;4952967;28;20078;-69
2023/01/22 07:36:13;;;;;;;7.95;5.43;;;0.80;99.90;;;;;;4952225;28;20415;-68
2023/01/22 07:38:40;;;;;;;6.82;5.00;;;1.00;99.90;;;;;;4952736;28;20043;-69
2023/01/22 07:41:07;;;;;;;7.45;5.38;;;0.90;99.90;;;;;;4956853;28;20101;-70
2023/01/22 07:43:36;;;;;;;8.10;5.75;;;0.80;99.90;;;;;;4952396;28;20067;-69
2023/01/22 07:46:03;;;;;;;8.77;6.07;;;0.80;99.90;;;;;;4970434;28;20055;-68
2023/01/22 07:48:30;;;;;;;7.03;5.10;;;0.70;99.90;;;;;;4949874;28;20047;-68
2023/01/22 07:51:00;;;;;;;7.65;5.47;;;0.70;99.90;;;;;;4954107;28;20050;-68
2023/01/22 07:53:27;;;;;;;10.57;5.13;;;0.60;99.90;;;;;;4969326;28;20359;-69
2023/01/22 07:55:54;;;;;;;10.50;5.38;;;0.90;99.90;;;;;;4971674;28;20050;-69
2023/01/22 07:58:21;;;;;;;9.57;5.47;;;0.60;99.90;;;;;;4952589;28;20538;-69
2023/01/22 08:00:49;;;;;;;7.40;5.38;;;1.00;99.90;;;;;;4960941;28;20122;-68
2023/01/22 08:03:16;;;;;;;10.50;6.03;;;0.60;99.90;;;;;;4953459;28;20062;-68
2023/01/22 08:05:44;;;;;;;10.48;6.20;;;0.60;99.90;;;;;;4959135;28;20054;-67
2023/01/22 08:08:14;;;;;;;10.15;6.43;;;0.50;99.90;;;;;;4967250;28;20039;-69
2023/01/22 08:10:42;;;;;;;8.52;6.18;;;0.60;99.90;;;;;;4954985;28;20082;-69
2023/01/22 08:13:09;;;;;;;9.88;5.65;;;0.50;99.90;;;;;;4971489;28;20061;-70
2023/01/22 08:15:36;;;;;;;9.23;6.53;;;0.50;99.90;;;;;;4972234;28;20047;-69
2023/01/22 08:18:06;;;;;;;8.63;6.20;;;0.50;99.90;;;;;;4974349;28;20061;-69
2023/01/22 08:20:33;;;;;;;9.15;6.50;;;0.50;99.90;;;;;;4973371;28;20107;-69
2023/01/22 08:23:00;;;;;;;11.55;5.72;;;0.50;99.90;;;;;;4960650;28;20105;-70
2023/01/22 08:25:28;;;;;;;8.00;6.13;;;0.50;99.90;;;;;;4943722;29;20059;-71
2023/01/22 08:27:55;;;;;;;9.20;5.70;;;0.50;99.90;;;;;;4948441;29;20066;-70
2023/01/22 08:30:22;;;;;;;11.63;5.63;;;0.50;99.90;;;;;;4950231;28;20047;-69
2023/01/22 08:32:50;;;;;;;8.73;6.13;;;0.50;99.90;;;;;;4933716;29;20050;-70
2023/01/22 08:35:18;;;;;;;7.40;6.13;;;0.50;99.90;;;;;;4934474;29;20051;-70
2023/01/22 08:37:45;;;;;;;6.28;5.50;;;0.60;99.90;;;;;;4949422;29;20043;-70
2023/01/22 08:40:12;;;;;;;8.55;5.22;;;0.50;99.90;;;;;;4933249;29;20055;-70
2023/01/22 08:42:39;;;;;;;8.38;6.00;;;0.60;99.90;;;;;;4949844;29;20051;-69
2023/01/22 08:45:09;;;;;;;11.68;5.55;;;0.60;99.90;;;;;;4950111;29;20435;-69
2023/01/22 08:47:36;;;;;;;6.72;5.88;;;0.50;99.90;;;;;;4946884;29;20044;-68
2023/01/22 08:50:03;;;;;;;9.13;5.93;;;0.50;99.90;;;;;;4934273;29;20056;-70
2023/01/22 08:52:32;;;;;;;7.65;5.70;;;0.50;99.90;;;;;;4946020;29;20067;-69
2023/01/22 08:54:59;;;;;;;6.47;5.07;;;0.50;99.90;;;;;;4932401;29;20055;-69
2023/01/22 08:57:25;;;;;;;9.70;5.80;;;0.50;99.90;;;;;;4949124;29;20055;-70
2023/01/22 08:59:53;;;;;;;13.95;5.53;;;0.60;99.90;;;;;;4950682;28;20039;-70
2023/01/22 09:02:19;;;;;;;8.85;6.88;;;0.80;99.90;;;;;;4950552;28;20055;-70
2023/01/22 09:04:46;;;;;;;7.82;5.38;;;0.80;99.90;;;;;;4950503;29;20043;-69
2023/01/22 09:07:13;;;;;;;9.25;5.38;;;0.70;99.90;;;;;;4933645;28;20419;-70
2023/01/22 09:09:41;;;;;;;8.18;5.57;;;0.70;99.90;;;;;;4933712;29;20099;-69
2023/01/22 09:12:08;;;;;;;8.82;6.20;;;0.80;99.90;;;;;;4950073;29;20059;-70
2023/01/22 09:14:35;;;;;;;7.65;4.70;;;0.90;99.90;;;;;;4933989;29;20055;-70
2023/01/22 09:17:02;;;;;;;6.93;5.35;;;0.80;99.90;;;;;;4935190;29;20058;-71
2023/01/22 09:19:29;;;;;;;6.57;4.75;;;0.90;99.90;;;;;;4934409;29;20058;-70
2023/01/22 09:21:56;;;;;;;9.30;6.13;;;1.00;99.90;;;;;;4936097;29;20067;-69
2023/01/22 09:24:23;;;;;;;9.23;5.35;;;1.00;99.90;;;;;;4953130;29;20047;-70
2023/01/22 09:26:51;;;;;;;7.63;5.20;;;1.10;99.90;;;;;;4954983;28;20050;-69
2023/01/22 09:29:18;;;;;;;7.57;5.55;;;1.20;99.90;;;;;;4967134;28;20043;-69
2023/01/22 09:31:45;;;;;;;6.47;5.00;;;1.20;99.90;;;;;;4962353;28;20061;-69
2023/01/22 09:34:12;;;;;;;9.82;5.65;;;1.50;99.90;;;;;;4972734;28;20062;-69
2023/01/22 09:36:40;;;;;;;6.43;5.18;;;1.90;99.90;;;;;;4956173;28;20479;-69
2023/01/22 09:39:07;;;;;;;10.43;5.18;;;2.30;99.90;;;;;;4953272;28;20047;-68
2023/01/22 09:41:36;;;;;;;7.28;5.00;;;2.70;99.90;;;;;;4972998;28;20460;-70
2023/01/22 09:44:10;;;;;;;6.60;4.60;;;3.00;99.90;;;;;;4971499;28;20061;-70
2023/01/22 09:46:39;;;;;;;7.55;4.85;;;3.40;99.90;;;;;;4955806;28;20514;-70
2023/01/22 09:49:15;;;;;;;5.60;4.22;;;3.80;99.90;;;;;;4971489;28;20047;-70
2023/01/22 09:51:44;;;;;;;8.32;4.90;;;3.90;99.90;;;;;;4953727;28;20061;-70
2023/01/22 09:54:14;;;;;;;7.72;4.70;;;3.80;99.90;;;;;;4956184;28;20051;-69
2023/01/22 09:56:44;;;;;;;7.70;4.50;;;3.40;99.90;;;;;;4967067;28;20151;-69
2023/01/22 09:59:16;;;;;;;7.38;5.65;;;2.90;99.90;;;;;;4974792;28;20049;-69
2023/01/22 10:01:46;;;;;;;6.80;5.05;;;2.60;99.90;;;;;;4973338;28;20090;-69
2023/01/22 10:04:26;;;;;;;9.10;5.13;;;2.50;99.90;;;;;;4953885;28;20532;-69
2023/01/22 10:06:55;;;;;;;6.43;4.72;;;2.40;99.90;;;;;;4957608;28;20059;-69
2023/01/22 10:09:23;;;;;;;7.05;4.85;;;2.30;99.90;;;;;;4972579;28;20077;-70
2023/01/22 10:11:53;;;;;;;6.43;5.13;;;2.20;99.90;;;;;;4958766;28;20055;-69
2023/01/22 10:14:23;;;;;;;9.00;4.85;;;2.10;99.90;;;;;;4955803;28;20055;-69
2023/01/22 10:16:51;;;;;;;6.85;5.05;;;2.10;99.90;;;;;;4955011;28;20073;-70
2023/01/22 10:19:21;;;;;;;7.22;4.72;;;2.00;99.90;;;;;;4970875;28;20043;-69
2023/01/22 10:21:49;;;;;;;6.15;4.60;;;2.10;99.90;;;;;;4971703;28;20062;-70
2023/01/22 10:24:16;;;;;;;6.45;4.70;;;2.10;99.90;;;;;;4959443;28;20054;-70
2023/01/22 10:26:47;;;;;;;7.50;4.88;;;2.20;99.90;;;;;;4962168;28;20078;-70
2023/01/22 10:29:24;;;;;;;6.70;4.18;;;2.20;99.90;;;;;;4953396;29;20055;-70
2023/01/22 10:31:53;;;;;;;6.25;4.53;;;2.20;99.90;;;;;;4952494;29;20082;-69
2023/01/22 10:34:26;;;;;;;7.30;4.10;;;2.40;99.90;;;;;;4949852;29;20051;-70
2023/01/22 10:36:54;;;;;;;5.75;3.70;;;2.30;99.90;;;;;;4948669;29;20082;-70
2023/01/22 10:39:20;;;;;;;7.40;4.57;;;2.30;99.90;;;;;;4938045;29;20400;-69
2023/01/22 10:41:49;;;;;;;5.13;3.95;;;2.30;99.90;;;;;;4951620;29;20058;-69
2023/01/22 10:44:25;;;;;;;7.47;4.43;;;2.30;99.90;;;;;;4935313;29;20047;-69
2023/01/22 10:46:54;;;;;;;4.97;4.18;;;2.30;99.90;;;;;;4935968;29;20059;-69
2023/01/22 10:49:23;;;;;;;6.95;3.72;;;2.30;99.90;;;;;;4936604;29;20102;-69
2023/01/22 10:51:53;;;;;;;8.60;4.47;;;2.30;99.90;;;;;;4952000;29;20056;-69
2023/01/22 10:54:28;;;;;;;6.20;4.22;;;2.30;99.90;;;;;;4950362;29;20070;-69
2023/01/22 10:57:05;;;;;;;7.25;4.40;;;2.30;99.90;;;;;;4950071;29;20054;-69
2023/01/22 10:59:34;;;;;;;6.63;4.65;;;2.40;99.90;;;;;;4936704;29;20075;-69
2023/01/22 11:02:03;;;;;;;8.30;5.03;;;2.40;99.90;;;;;;4951722;29;20058;-69
2023/01/22 11:04:31;;;;;;;6.03;4.10;;;2.60;99.90;;;;;;4949952;29;20392;-69
2023/01/22 11:07:05;;;;;;;6.95;4.93;;;2.60;99.90;;;;;;4952269;29;20052;-70
2023/01/22 11:09:39;;;;;;;10.52;4.70;;;2.70;99.90;;;;;;4951149;29;20090;-69
2023/01/22 11:12:13;;;;;;;7.25;5.18;;;2.60;99.90;;;;;;4933732;29;20689;-69
2023/01/22 11:14:43;;;;;;;6.70;5.07;;;2.70;99.90;;;;;;4962263;28;20063;-69
2023/01/22 11:17:19;;;;;;;8.95;5.43;;;2.80;99.90;;;;;;4935422;29;20058;-69
2023/01/22 11:19:53;;;;;;;8.05;4.93;;;2.90;99.90;;;;;;4951574;29;20495;-69
2023/01/22 11:22:28;;;;;;;8.30;5.07;;;3.10;99.90;;;;;;4950670;29;20053;-69
2023/01/22 11:24:55;;;;;;;6.43;4.82;;;3.20;99.90;;;;;;4934192;29;20075;-68
2023/01/22 11:27:40;;;;;;;8.35;5.13;;;3.10;99.90;;;;;;4933089;29;20517;-68
2023/01/22 11:30:41;;;;;;;8.00;5.53;;;3.20;99.90;;;;;;4948454;29;20055;-68
2023/01/22 11:33:21;;;;;;;5.75;4.43;;;3.20;99.90;;;;;;4892054;29;20496;-68
2023/01/22 11:35:54;;;;;;;7.25;4.72;;;3.10;99.90;;;;;;4942836;29;20054;-69
2023/01/22 11:38:32;;;;;;;8.30;4.95;;;3.00;99.90;;;;;;4950266;28;20058;-69
2023/01/22 11:41:07;;;;;;;6.20;5.00;;;3.00;99.90;;;;;;4951161;28;20055;-70
2023/01/22 11:44:01;;;;;;;6.78;4.85;;;3.20;99.90;;;;;;4931907;29;20070;-70
2023/01/22 11:46:43;;;;;;;6.72;4.85;;;3.10;99.90;;;;;;4950437;29;20058;-71
2023/01/22 11:49:21;;;;;;;8.98;5.47;;;3.10;99.90;;;;;;4930664;29;20238;-70
2023/01/22 11:51:58;;;;;;;8.27;4.80;;;3.20;99.90;;;;;;4934130;29;20496;-70
2023/01/22 11:54:54;;;;;;;6.93;4.82;;;3.30;99.90;;;;;;4934982;29;20141;-69
2023/01/22 11:57:26;;;;;;;8.20;4.95;;;3.40;99.90;;;;;;4948612;28;20054;-69
2023/01/22 12:00:22;;;;;;;7.45;4.80;;;3.50;99.90;;;;;;4935528;29;20066;-69
2023/01/22 12:03:26;;;;;;;5.90;4.70;;;3.60;99.90;;;;;;4947476;29;20054;-70
2023/01/22 12:06:05;;;;;;;8.07;4.90;;;3.70;99.90;;;;;;4951324;29;20051;-70
2023/01/22 12:08:44;;;;;;;8.85;4.47;;;3.80;99.90;;;;;;4947443;29;20082;-70
2023/01/22 12:11:23;;;;;;;7.53;4.13;;;4.00;99.90;;;;;;4934838;29;20051;-70
2023/01/22 12:14:13;;;;;;;5.90;4.40;;;4.60;99.90;;;;;;4948911;29;20059;-70
2023/01/22 12:16:48;;;;;;;12.40;4.80;;;4.80;99.90;;;;;;4942705;29;20055;-71
2023/01/22 12:19:43;;;;;;;6.72;4.47;;;4.80;99.90;;;;;;4932981;29;20047;-68
2023/01/22 12:22:23;;;;;;;6.00;4.47;;;4.80;99.90;;;;;;4948271;29;20047;-68
2023/01/22 12:24:57;;;;;;;6.72;4.20;;;4.80;99.90;;;;;;4936198;28;20537;-69
2023/01/22 12:27:29;;;;;;;6.50;4.05;;;4.50;99.90;;;;;;4952069;28;20411;-68
2023/01/22 12:30:01;;;;;;;7.13;4.70;;;4.30;99.90;;;;;;4956571;28;20043;-69
2023/01/22 12:32:30;;;;;;;7.30;5.55;;;4.20;99.90;;;;;;4950594;28;20063;-70
2023/01/22 12:35:05;;;;;;;7.13;4.78;;;4.00;99.90;;;;;;4967617;28;20109;-70
2023/01/22 12:37:40;;;;;;;7.20;4.60;;;3.90;99.90;;;;;;4951072;28;20055;-72
2023/01/22 12:40:39;;;;;;;8.70;4.57;;;3.70;99.90;;;;;;4952109;28;20051;-71
2023/01/22 12:43:07;;;;;;;6.20;4.15;;;3.60;99.90;;;;;;4966782;28;20483;-71
2023/01/22 12:45:43;;;;;;;8.57;4.75;;;3.50;99.90;;;;;;4973005;28;20049;-71
2023/01/22 12:48:19;;;;;;;6.00;4.20;;;3.40;99.90;;;;;;4953526;28;20047;-70
2023/01/22 12:50:52;;;;;;;5.90;4.18;;;3.30;99.90;;;;;;4960913;28;20085;-71
2023/01/22 12:53:26;;;;;;;7.38;5.00;;;3.20;99.90;;;;;;4956190;28;20059;-73
2023/01/22 12:56:01;;;;;;;7.00;4.53;;;3.20;99.90;;;;;;4973783;28;20050;-72
2023/01/22 12:58:30;;;;;;;7.45;4.68;;;3.20;99.90;;;;;;4956472;28;20051;-72
2023/01/22 13:01:03;;;;;;;9.05;4.63;;;3.10;99.90;;;;;;4974041;28;20054;-71
2023/01/22 13:03:30;;;;;;;7.15;4.88;;;3.00;99.90;;;;;;4976863;28;20058;-70
2023/01/22 13:05:59;;;;;;;8.85;5.22;;;2.40;99.90;;;;;;4956217;28;20109;-70
2023/01/22 13:08:41;;;;;;;7.15;4.90;;;3.00;99.90;;;;;;4968110;28;20058;-68
2023/01/22 13:11:10;;;;;;;8.07;4.65;;;3.10;99.90;;;;;;4956197;28;20047;-69
2023/01/22 13:13:48;;;;;;;6.28;4.13;;;3.10;99.90;;;;;;4957421;28;20089;-68
2023/01/22 13:16:21;;;;;;;8.60;4.72;;;3.00;99.90;;;;;;4976436;28;20050;-69